Date,TemperatureHighF,TemperatureAvgF,TemperatureLowF,DewpointHighF,DewpointAvgF,DewpointLowF,HumidityHigh,HumidityAvg,HumidityLow,PressureMaxIn,PressureMinIn,WindSpeedMaxMPH,WindSpeedAvgMPH,GustSpeedMaxMPH,PrecipitationSumIn
2013-3-1,43.3,36.9,33.4,34.3,29.4,25.2,95,75,53,29.75,29.58,15,4,15,0.00
2013-3-2,36.6,32.7,27.0,25.4,23.9,22.0,82,70,61,29.75,29.65,15,5,15,0.00
2013-3-3,32.7,28.3,25.5,25.4,20.7,16.4,83,73,58,29.72,29.62,15,6,15,0.00
2013-3-4,38.9,30.7,25.3,22.7,20.0,18.0,77,65,49,29.86,29.68,23,7,23,0.00
2013-3-5,43.3,35.4,28.2,26.3,23.9,20.9,77,63,48,30.01,29.86,17,4,17,0.00
2013-3-6,39.2,36.6,34.7,35.6,29.1,26.0,90,74,64,30.00,29.91,22,10,22,0.00
2013-3-7,35.4,33.2,30.7,30.9,28.0,24.4,96,81,69,30.06,29.97,21,8,21,0.17
2013-3-8,37.3,32.6,28.5,30.3,27.8,23.6,98,84,60,30.19,29.98,15,5,15,0.47
2013-3-9,49.2,38.0,28.3,26.0,23.1,21.2,75,56,36,30.31,30.19,15,4,15,0.00
2013-3-10,50.1,38.1,27.0,32.3,27.9,21.9,87,68,44,30.38,30.25,13,4,13,0.00
2013-3-11,53.0,42.9,33.9,45.4,37.0,30.5,96,80,56,30.30,30.08,14,4,14,0.00
2013-3-12,53.4,49.0,39.7,53.4,48.5,36.5,100,98,88,30.08,29.65,18,8,18,1.05
2013-3-13,47.2,40.0,33.5,36.6,24.2,9.5,88,56,32,29.85,29.73,21,6,21,0.00
2013-3-14,35.6,30.8,26.1,10.6,6.3,2.2,35,35,35,29.88,29.79,24,11,24,0.00
2013-3-15,41.1,32.9,23.3,15.5,8.3,-0.3,35,35,35,29.92,29.67,28,8,28,0.00
2013-3-16,38.4,32.7,28.0,26.8,12.2,3.9,81,45,35,29.89,29.72,17,2,17,0.00
2013-3-17,35.8,29.4,22.6,25.2,13.8,2.6,81,56,28,30.31,29.89,15,4,15,0.00
2013-3-18,33.9,26.8,18.3,25.6,9.8,2.5,92,51,31,30.42,30.08,15,4,15,0.21
2013-3-19,36.8,31.8,27.1,34.0,27.8,22.9,93,85,69,30.07,29.65,20,6,20,0.35
2013-3-20,42.7,31.8,26.2,23.1,17.0,9.6,76,55,32,29.83,29.73,26,9,26,0.00
2013-3-21,37.1,31.8,28.1,24.6,18.8,13.5,80,60,40,29.82,29.59,15,3,15,0.00
2013-3-22,37.9,31.1,22.5,25.7,20.6,14.7,78,65,52,29.82,29.68,26,8,26,0.00
2013-3-23,43.1,36.0,30.6,25.6,22.5,18.8,75,59,38,29.88,29.73,25,12,25,0.00
2013-3-24,42.7,35.8,28.5,26.4,23.4,19.7,74,61,49,29.90,29.70,16,4,16,0.00
2013-3-25,44.1,38.1,31.7,28.9,26.6,25.0,80,63,49,29.73,29.43,16,6,16,0.00
2013-3-26,47.2,40.1,34.2,32.0,28.0,23.5,77,62,44,29.84,29.57,17,4,17,0.00
2013-3-27,51.1,41.1,31.4,30.1,25.1,22.3,70,54,33,29.93,29.81,20,4,20,0.00
2013-3-28,48.3,41.0,34.3,35.9,31.5,26.0,79,69,56,30.08,29.93,16,3,16,0.00
2013-3-29,53.4,44.1,35.8,34.2,30.4,28.8,77,59,40,30.10,29.98,23,5,23,0.00
2013-3-30,56.4,45.3,35.0,33.4,26.9,20.5,81,52,26,30.13,30.00,14,3,14,0.00
2013-3-31,55.6,44.0,32.0,42.1,29.7,21.3,95,59,34,30.12,29.66,21,6,21,0.11